Time;durP1;ratioP1;P1;durP2;ratioP2;P2;SDS_P1;SDS_P2;PMS_P1;PMS_P2;Temp;Humidity;BMP_temperature;BMP_pressure;BME280_temperature;BME280_humidity;BME280_pressure;Samples;Min_cycle;Max_cycle;Signal;HPM_P1;HPM_P2
2022/08/25 00:01:50;;;;;;;12.48;5.12;;;;;;;24.79;60.16;98734.91;4487643;32;20122;-83
2022/08/25 00:04:16;;;;;;;;;;;;;;;24.79;60.22;98732.19;4488028;32;20100;-83
2022/08/25 00:06:43;;;;;;;14.00;5.22;;;;;;;24.91;59.89;98728.09;4487633;32;20235;-83
2022/08/25 00:09:09;;;;;;;13.32;4.95;;;;;;;24.85;60.03;98728.78;4487650;32;20153;-83
2022/08/25 00:11:37;;;;;;;14.15;5.40;;;;;;;24.82;60.17;98734.56;4473270;32;20148;-83
2022/08/25 00:14:04;;;;;;;;;;;;;;;24.82;60.21;98731.88;4487931;32;20175;-83
2022/08/25 00:16:30;;;;;;;15.90;5.43;;;;;;;24.96;59.86;98729.44;4473419;32;20395;-83
2022/08/25 00:18:59;;;;;;;15.48;5.95;;;;;;;24.85;59.99;98731.50;4487697;32;20088;-83
2022/08/25 00:21:26;;;;;;;15.35;5.45;;;;;;;24.81;60.12;98732.88;4487817;32;20104;-83
2022/08/25 00:23:51;;;;;;;14.95;5.50;;;;;;;24.81;60.08;98727.47;4473484;32;20104;-83
2022/08/25 00:26:17;;;;;;;15.07;5.85;;;;;;;24.80;60.17;98725.81;4487701;32;20100;-83
2022/08/25 00:28:43;;;;;;;17.55;6.22;;;;;;;24.77;60.36;98719.94;4487764;32;20092;-83
2022/08/25 00:31:14;;;;;;;14.45;5.78;;;;;;;24.77;60.42;98725.31;4487562;32;20123;-83
2022/08/25 00:33:41;;;;;;;13.52;5.43;;;;;;;24.77;60.44;98715.38;4473731;32;20088;-83
2022/08/25 00:36:11;;;;;;;16.23;5.35;;;;;;;24.71;60.63;98719.63;4487662;32;20418;-83
2022/08/25 00:38:39;;;;;;;12.65;5.50;;;;;;;24.71;60.66;98724.16;4487398;32;20151;-83
2022/08/25 00:41:05;;;;;;;13.77;5.62;;;;;;;24.72;60.68;98720.44;4473451;32;20105;-83
2022/08/25 00:43:39;;;;;;;15.07;5.75;;;;;;;24.60;61.08;98724.56;4487674;32;20158;-85
2022/08/25 00:46:05;;;;;;;15.07;5.47;;;;;;;24.68;60.80;98716.44;4487414;32;20080;-85
2022/08/25 00:48:31;;;;;;;15.85;5.60;;;;;;;24.65;60.83;98717.62;4473165;32;20197;-86
2022/08/25 00:50:56;;;;;;;13.30;5.80;;;;;;;24.65;60.86;98717.62;4473096;32;20124;-86
2022/08/25 00:53:22;;;;;;;16.00;5.68;;;;;;;24.67;60.86;98720.97;4473302;32;20072;-85
2022/08/25 00:55:48;;;;;;;15.25;5.72;;;;;;;24.47;61.57;98719.69;4487385;32;20088;-85
2022/08/25 00:58:25;;;;;;;13.75;5.32;;;;;;;24.47;61.52;98717.84;4473395;32;20104;-85
2022/08/25 01:00:54;;;;;;;12.15;5.18;;;;;;;24.56;61.33;98720.53;4473271;32;20481;-86
2022/08/25 01:03:22;;;;;;;16.60;5.80;;;;;;;24.56;61.31;98715.16;4473414;32;20085;-83
2022/08/25 01:05:47;;;;;;;15.82;5.85;;;;;;;24.50;61.53;98719.34;4487510;32;20102;-83
2022/08/25 01:08:14;;;;;;;14.15;5.40;;;;;;;24.53;61.46;98716.31;4473001;32;20105;-83
2022/08/25 01:10:42;;;;;;;14.98;5.68;;;;;;;24.50;61.52;98717.47;4487131;32;20092;-83
2022/08/25 01:13:33;;;;;;;15.65;5.93;;;;;;;24.53;61.44;98714.50;4487282;32;20085;-83
2022/08/25 01:15:59;;;;;;;13.85;5.78;;;;;;;24.56;61.41;98717.84;4486797;32;20072;-83
2022/08/25 01:18:26;;;;;;;13.45;5.65;;;;;;;24.50;61.48;98714.78;4472815;32;20425;-83
2022/08/25 01:20:53;;;;;;;13.47;6.00;;;;;;;24.53;61.43;98713.63;4487152;32;20451;-83
2022/08/25 01:23:20;;;;;;;16.12;6.10;;;;;;;24.51;61.50;98713.81;4487144;32;20387;-83
2022/08/25 01:25:49;;;;;;;15.20;6.82;;;;;;;24.45;61.71;98713.63;4487402;32;20080;-83
2022/08/25 01:28:15;;;;;;;14.07;6.20;;;;;;;24.47;61.66;98709.78;4486985;32;20123;-84
2022/08/25 01:30:41;;;;;;;13.85;6.12;;;;;;;24.37;62.01;98716.38;4486413;32;20461;-83
2022/08/25 01:33:10;;;;;;;13.77;5.37;;;;;;;24.25;62.28;98713.22;4487005;32;20088;-84
2022/08/25 01:35:35;;;;;;;15.32;6.25;;;;;;;24.30;62.11;98705.47;4472827;32;20114;-84
2022/08/25 01:38:03;;;;;;;17.20;5.87;;;;;;;24.34;61.96;98707.63;4487051;32;20128;-84
2022/08/25 01:40:29;;;;;;;16.67;5.85;;;;;;;24.35;61.97;98711.16;4472767;32;20127;-83
2022/08/25 01:43:05;;;;;;;13.55;6.30;;;;;;;24.34;61.97;98706.78;4487079;32;20092;-83
2022/08/25 01:45:32;;;;;;;14.63;5.55;;;;;;;24.41;61.81;98696.97;4487098;32;20068;-85
2022/08/25 01:47:57;;;;;;;14.90;6.40;;;;;;;24.43;61.69;98696.81;4487297;32;20480;-83
2022/08/25 01:50:23;;;;;;;16.23;6.15;;;;;;;24.45;61.64;98705.56;4487168;32;20130;-82
2022/08/25 01:52:53;;;;;;;13.60;5.47;;;;;;;24.41;61.79;98702.38;4487011;32;20092;-82
2022/08/25 01:55:19;;;;;;;16.37;5.50;;;;;;;24.40;61.89;98706.09;4486900;32;20092;-82
2022/08/25 01:57:45;;;;;;;15.90;6.22;;;;;;;24.31;62.31;98705.28;4486749;32;20346;-82
2022/08/25 02:00:12;;;;;;;14.60;5.70;;;;;;;24.37;62.05;98709.12;4486882;32;20436;-82
2022/08/25 02:02:38;;;;;;;;;;;;;;;24.42;61.94;98706.75;4487041;32;20091;-83
2022/08/25 02:05:04;;;;;;;15.38;6.12;;;;;;;24.50;61.81;98708.56;4472619;32;20317;-84
2022/08/25 02:07:30;;;;;;;14.85;6.25;;;;;;;24.44;61.88;98706.59;4486791;32;20131;-83
2022/08/25 02:09:56;;;;;;;13.18;6.03;;;;;;;24.40;62.06;98708.78;4486732;32;20467;-83
2022/08/25 02:12:22;;;;;;;16.02;5.97;;;;;;;24.37;62.21;98701.03;4486697;32;20136;-84
2022/08/25 02:14:47;;;;;;;13.35;5.85;;;;;;;24.47;61.93;98700.84;4486724;32;20103;-83
2022/08/25 02:17:13;;;;;;;13.07;5.30;;;;;;;24.43;61.98;98700.34;4472323;32;20101;-85
2022/08/25 02:19:38;;;;;;;17.80;6.50;;;;;;;24.45;61.96;98690.22;4486633;32;20377;-85
2022/08/25 02:22:04;;;;;;;16.08;6.03;;;;;;;24.41;62.12;98699.69;4459215;32;20083;-85
2022/08/25 02:24:29;;;;;;;15.63;6.28;;;;;;;24.38;62.31;98701.88;4486631;32;20080;-85
2022/08/25 02:26:56;;;;;;;14.48;5.62;;;;;;;24.37;62.35;98700.22;4472315;32;20458;-85
2022/08/25 02:29:22;;;;;;;14.80;5.78;;;;;;;24.42;62.10;98701.38;4486315;32;20088;-85
2022/08/25 02:31:48;;;;;;;14.57;5.50;;;;;;;24.43;62.08;98700.34;4472170;32;20178;-85
2022/08/25 02:34:14;;;;;;;14.60;6.18;;;;;;;24.44;62.06;98693.13;4486404;32;20080;-85
2022/08/25 02:36:39;;;;;;;15.93;5.80;;;;;;;24.43;62.01;98697.66;4472160;32;20137;-85
2022/08/25 02:39:07;;;;;;;12.82;5.80;;;;;;;24.43;62.02;98699.50;4486529;32;20123;-85
2022/08/25 02:41:33;;;;;;;15.00;5.70;;;;;;;24.29;62.56;98698.37;4472043;32;20092;-85
2022/08/25 02:44:00;;;;;;;15.65;5.65;;;;;;;24.40;62.24;98698.00;4487606;32;20076;-85
2022/08/25 02:46:26;;;;;;;16.10;6.23;;;;;;;24.37;62.30;98700.22;4473944;32;20706;-85
2022/08/25 02:48:52;;;;;;;15.27;6.05;;;;;;;24.34;62.38;98693.34;4488276;32;20119;-85
2022/08/25 02:51:18;;;;;;;15.25;6.18;;;;;;;24.36;62.47;98691.31;4488089;32;20155;-85
2022/08/25 02:53:45;;;;;;;16.55;5.70;;;;;;;24.39;62.29;98685.56;4488218;32;20077;-84
2022/08/25 02:56:12;;;;;;;14.23;5.60;;;;;;;24.43;62.11;98694.94;4471193;32;20088;-84
2022/08/25 02:58:40;;;;;;;14.38;5.72;;;;;;;24.43;62.12;98688.75;4471351;32;20092;-84
2022/08/25 03:01:06;;;;;;;14.07;5.43;;;;;;;24.42;62.11;98695.16;4471286;32;20111;-83
2022/08/25 03:03:32;;;;;;;13.45;6.12;;;;;;;24.43;62.10;98694.94;4471524;32;20107;-84
2022/08/25 03:05:58;;;;;;;16.90;6.18;;;;;;;24.29;62.75;98693.84;4472460;32;20234;-86
2022/08/25 03:08:23;;;;;;;15.50;5.97;;;;;;;24.36;62.49;98693.13;4472407;32;20089;-86
2022/08/25 03:10:49;;;;;;;14.00;5.93;;;;;;;24.37;62.39;98690.28;4472284;32;20439;-85
2022/08/25 03:13:15;;;;;;;14.48;5.80;;;;;;;24.37;62.38;98686.75;4470959;32;20081;-85
2022/08/25 03:15:41;;;;;;;14.07;5.85;;;;;;;24.38;62.35;98686.59;4472389;32;20093;-86
2022/08/25 03:18:07;;;;;;;13.73;5.62;;;;;;;24.36;62.41;98685.06;4471171;32;20100;-85
2022/08/25 03:20:34;;;;;;;13.27;5.82;;;;;;;24.34;62.48;98686.09;4472373;32;20111;-87
2022/08/25 03:23:00;;;;;;;15.85;5.37;;;;;;;24.36;62.42;98688.63;4471142;32;20081;-87
2022/08/25 03:28:10;;;;;;;14.40;5.82;;;;;;;24.37;62.40;98681.38;4471284;32;20140;-87
2022/08/25 03:30:35;;;;;;;13.18;5.82;;;;;;;24.34;62.44;98688.78;4471899;32;20077;-87
2022/08/25 03:33:01;;;;;;;17.62;6.45;;;;;;;24.34;62.45;98679.88;4472155;32;20120;-88
2022/08/25 03:35:26;;;;;;;13.68;5.45;;;;;;;24.36;62.35;98683.22;4472109;32;20117;-87
2022/08/25 03:37:56;;;;;;;16.45;6.00;;;;;;;24.36;62.35;98683.22;4470995;32;20116;-87
2022/08/25 03:40:22;;;;;;;16.52;5.97;;;;;;;24.37;62.34;98687.59;4472462;32;20250;-87
2022/08/25 03:42:48;;;;;;;15.18;6.03;;;;;;;24.37;62.21;98684.06;4470897;32;20073;-87
2022/08/25 03:45:15;;;;;;;13.70;5.65;;;;;;;24.37;62.21;98697.53;4472188;32;20448;-84
2022/08/25 03:47:41;;;;;;;;;;;;;;;24.25;62.53;98687.12;4472487;32;20110;-85
2022/08/25 03:50:09;;;;;;;14.02;5.85;;;;;;;24.39;62.16;98695.50;4472094;32;19980;-84
2022/08/25 03:52:36;;;;;;;12.20;5.75;;;;;;;24.33;62.25;98687.09;4470904;32;20092;-85
2022/08/25 03:55:04;;;;;;;13.70;5.87;;;;;;;24.23;62.57;98691.84;4470636;32;20112;-85
2022/08/25 03:57:30;;;;;;;16.08;6.05;;;;;;;24.09;63.08;98696.09;4470871;32;20520;-86
2022/08/25 03:59:55;;;;;;;16.52;6.00;;;;;;;24.21;62.68;98690.34;4472255;32;20096;-86
2022/08/25 04:02:20;;;;;;;11.68;5.03;;;;;;;24.23;62.58;98689.16;4472277;32;20355;-85
2022/08/25 04:04:46;;;;;;;15.73;5.85;;;;;;;24.30;62.41;98682.06;4472231;32;20478;-84
2022/08/25 04:07:11;;;;;;;14.65;5.47;;;;;;;24.32;62.33;98687.28;4472229;32;20109;-84
2022/08/25 04:09:37;;;;;;;15.15;5.45;;;;;;;24.33;62.40;98688.94;4470865;32;20131;-83
2022/08/25 04:12:03;;;;;;;14.27;5.82;;;;;;;24.30;62.51;98692.84;4472081;32;20111;-84
2022/08/25 04:14:28;;;;;;;12.27;5.97;;;;;;;24.30;62.61;98689.31;4472128;32;20158;-85
2022/08/25 04:16:57;;;;;;;16.50;5.62;;;;;;;24.38;62.52;98693.78;4472139;32;20157;-82
2022/08/25 04:19:22;;;;;;;13.10;5.28;;;;;;;24.47;62.25;98699.00;4471834;32;20097;-82
2022/08/25 04:21:48;;;;;;;13.55;5.65;;;;;;;24.61;61.80;98689.37;4471802;32;20127;-82
2022/08/25 04:24:14;;;;;;;15.18;5.70;;;;;;;24.28;62.60;98700.25;4471971;32;20104;-81
2022/08/25 04:26:48;;;;;;;14.60;5.85;;;;;;;24.46;62.06;98700.00;4471903;32;20416;-84
2022/08/25 04:29:17;;;;;;;14.27;5.78;;;;;;;24.65;61.76;98695.25;4471027;32;20395;-84
2022/08/25 04:31:45;;;;;;;12.70;5.47;;;;;;;24.77;61.60;98693.81;4470606;32;20127;-82
2022/08/25 04:34:11;;;;;;;13.05;5.15;;;;;;;24.88;61.47;98693.44;4472075;32;20148;-83
2022/08/25 04:36:36;;;;;;;16.42;5.65;;;;;;;24.98;61.28;98697.75;4470747;32;20415;-85
2022/08/25 04:39:02;;;;;;;16.65;5.47;;;;;;;25.07;60.94;98702.03;4471939;32;20144;-83
2022/08/25 04:41:29;;;;;;;13.57;5.18;;;;;;;25.19;60.70;98697.06;4470971;32;20408;-80
2022/08/25 04:43:58;;;;;;;13.98;5.10;;;;;;;25.28;60.08;98691.50;4470729;32;20109;-80
2022/08/25 04:46:26;;;;;;;12.57;5.10;;;;;;;25.39;59.83;98689.37;4471995;32;20100;-80
2022/08/25 04:48:53;;;;;;;15.68;5.07;;;;;;;25.44;59.68;98692.34;4471735;32;20096;-80
2022/08/25 04:51:23;;;;;;;16.42;5.00;;;;;;;25.47;59.61;98689.31;4470469;32;20167;-81
2022/08/25 04:53:51;;;;;;;12.68;4.65;;;;;;;25.45;59.37;98685.97;4471639;32;20498;-80
2022/08/25 04:56:18;;;;;;;12.43;5.37;;;;;;;25.52;59.60;98695.00;4475513;32;20092;-80
2022/08/25 04:58:45;;;;;;;12.63;4.95;;;;;;;25.77;59.19;98689.37;4473084;32;20092;-79
2022/08/25 05:01:14;;;;;;;;;;;;;;;25.67;59.33;98689.63;4473600;32;20072;-80
2022/08/25 05:03:39;;;;;;;;;;;;;;;26.00;57.77;98695.59;4487659;32;19994;-80
2022/08/25 05:06:05;;;;;;;15.38;5.28;;;;;;;26.23;57.22;98687.41;4486468;32;19988;-80
2022/08/25 05:08:31;;;;;;;14.38;4.97;;;;;;;26.03;57.65;98687.09;4487305;32;20084;-80
2022/08/25 05:10:57;;;;;;;13.02;4.78;;;;;;;26.29;57.28;98685.81;4487081;32;20110;-80
2022/08/25 05:13:24;;;;;;;13.02;4.75;;;;;;;26.16;57.63;98686.47;4487101;32;20194;-80
2022/08/25 05:15:57;;;;;;;14.05;4.90;;;;;;;26.07;57.10;98688.41;4473023;32;20100;-80
2022/08/25 05:18:24;;;;;;;15.07;5.05;;;;;;;26.48;55.44;98685.25;4487161;32;20088;-80
2022/08/25 05:20:52;;;;;;;14.75;4.57;;;;;;;26.60;55.29;98688.31;4472830;32;20111;-80
2022/08/25 05:23:18;;;;;;;15.07;5.60;;;;;;;26.70;55.18;98679.91;4486972;32;20168;-80
2022/08/25 05:25:43;;;;;;;15.07;4.75;;;;;;;26.76;54.85;98684.56;4473087;32;20095;-80
2022/08/25 05:28:09;;;;;;;15.30;4.80;;;;;;;27.06;53.64;98684.44;4487314;32;20111;-81
2022/08/25 05:30:38;;;;;;;14.02;5.05;;;;;;;26.87;54.02;98675.94;4487171;32;20423;-81
2022/08/25 05:33:04;;;;;;;16.23;5.25;;;;;;;26.92;54.20;98685.34;4472772;32;20542;-81
2022/08/25 05:35:29;;;;;;;11.15;5.03;;;;;;;27.07;53.51;98684.25;4487097;32;20123;-81
2022/08/25 05:37:56;;;;;;;14.32;4.60;;;;;;;27.25;52.96;98686.56;4472676;32;20144;-81
2022/08/25 05:40:22;;;;;;;17.52;5.40;;;;;;;27.33;52.85;98690.16;4487029;32;20148;-80
2022/08/25 05:42:47;;;;;;;14.65;4.72;;;;;;;27.44;52.58;98687.75;4472645;32;20135;-81
2022/08/25 05:45:13;;;;;;;14.57;4.75;;;;;;;27.31;53.15;98689.50;4486916;32;20112;-81
2022/08/25 05:47:39;;;;;;;13.85;5.03;;;;;;;27.30;53.19;98682.44;4481651;32;165154;-81
2022/08/25 05:50:05;;;;;;;14.60;4.80;;;;;;;27.65;52.13;98684.19;4486838;32;20098;-81
2022/08/25 05:52:31;;;;;;;13.27;5.00;;;;;;;27.73;51.43;98683.19;4487051;32;20447;-81
2022/08/25 05:54:57;;;;;;;15.52;4.78;;;;;;;27.83;51.36;98677.44;4472635;32;20122;-81
2022/08/25 05:57:22;;;;;;;13.45;4.30;;;;;;;27.98;51.16;98682.78;4486832;32;20176;-80
2022/08/25 05:59:48;;;;;;;14.05;4.57;;;;;;;28.01;50.42;98680.53;4486769;32;20080;-79
2022/08/25 06:04:58;;;;;;;11.63;4.78;;;;;;;28.00;50.01;98681.53;4486957;32;20458;-78
2022/08/25 06:07:23;;;;;;;14.40;4.80;;;;;;;28.12;50.44;98676.41;4486698;32;20129;-79
2022/08/25 06:09:49;;;;;;;13.32;4.72;;;;;;;28.21;51.44;98679.78;4472333;32;20356;-80
2022/08/25 06:12:15;;;;;;;13.68;4.68;;;;;;;28.33;51.52;98682.78;4472378;32;20144;-81
2022/08/25 06:14:41;;;;;;;16.27;5.00;;;;;;;28.26;52.23;98684.59;4486730;32;20092;-82
2022/08/25 06:17:07;;;;;;;18.20;4.95;;;;;;;28.42;51.67;98678.84;4486479;32;20117;-83
2022/08/25 06:19:33;;;;;;;11.73;4.60;;;;;;;28.30;50.00;98684.00;4488113;31;20080;-81
2022/08/25 06:21:58;;;;;;;12.43;4.45;;;;;;;28.47;49.82;98691.78;4479273;32;20379;-82
2022/08/25 06:24:30;;;;;;;13.32;4.72;;;;;;;28.47;50.47;98687.19;4486602;32;20092;-82
2022/08/25 06:26:56;;;;;;;14.95;4.87;;;;;;;28.65;50.30;98681.28;4472706;32;20096;-81
2022/08/25 06:29:22;;;;;;;13.13;4.72;;;;;;;28.65;49.94;98691.25;4486641;32;20156;-81
2022/08/25 06:31:48;;;;;;;14.75;4.72;;;;;;;28.58;50.14;98691.25;4486599;31;20149;-82
2022/08/25 06:34:15;;;;;;;12.30;4.57;;;;;;;28.73;49.66;98691.94;4490272;31;20158;-82
2022/08/25 06:36:40;;;;;;;14.93;4.87;;;;;;;28.95;48.51;98698.03;4491132;31;20508;-81
2022/08/25 06:39:06;;;;;;;13.10;5.22;;;;;;;28.95;48.14;98697.22;4486533;32;20085;-82
2022/08/25 06:41:32;;;;;;;11.20;4.43;;;;;;;28.93;48.18;98704.72;4498932;31;20099;-81
2022/08/25 06:43:58;;;;;;;13.40;4.78;;;;;;;28.81;48.50;98705.31;4502439;31;20417;-81
2022/08/25 06:46:29;;;;;;;12.70;5.40;;;;;;;28.95;48.82;98713.47;4502095;31;20132;-82
2022/08/25 06:48:56;;;;;;;14.07;5.40;;;;;;;29.08;48.64;98710.81;4502127;31;20382;-82
2022/08/25 06:51:23;;;;;;;13.52;5.22;;;;;;;29.17;48.32;98715.03;4502037;31;20188;-82
2022/08/25 06:53:49;;;;;;;12.18;4.47;;;;;;;28.92;48.16;98709.31;4487681;31;20118;-82
2022/08/25 06:56:16;;;;;;;14.73;4.50;;;;;;;28.92;48.49;98716.62;4501607;31;20447;-84
2022/08/25 06:58:42;;;;;;;10.88;4.28;;;;;;;28.83;48.26;98711.34;4487401;31;20114;-80
2022/08/25 07:01:28;;;;;;;12.30;4.50;;;;;;;29.20;47.21;98708.34;4501744;31;20112;-80
2022/08/25 07:03:56;;;;;;;12.93;4.57;;;;;;;28.97;47.57;98714.94;4501578;31;20092;-82
2022/08/25 07:06:22;;;;;;;12.77;4.35;;;;;;;28.73;47.76;98716.34;4501844;31;20417;-81
2022/08/25 07:08:48;;;;;;;13.77;4.70;;;;;;;28.66;47.56;98720.87;4501819;31;20147;-81
2022/08/25 07:11:14;;;;;;;10.73;3.80;;;;;;;28.46;48.07;98712.63;4501539;31;20092;-81
2022/08/25 07:13:40;;;;;;;12.03;4.63;;;;;;;28.95;47.61;98714.31;4501658;31;20096;-81
2022/08/25 07:16:06;;;;;;;14.25;4.07;;;;;;;28.32;48.55;98709.03;4486953;31;20144;-81
2022/08/25 07:18:32;;;;;;;13.10;4.40;;;;;;;28.89;48.20;98706.16;4483235;32;20119;-82
2022/08/25 07:20:58;;;;;;;10.82;4.20;;;;;;;29.02;47.80;98708.91;4470877;32;20123;-81
2022/08/25 07:23:24;;;;;;;12.07;4.28;;;;;;;29.24;46.87;98708.78;4485624;31;20088;-83
2022/08/25 07:25:50;;;;;;;15.43;4.90;;;;;;;29.40;46.24;98711.94;4485121;31;20579;-82
2022/08/25 07:28:16;;;;;;;12.50;4.65;;;;;;;29.49;45.94;98709.84;4479189;32;20076;-83
2022/08/25 07:30:41;;;;;;;12.35;4.65;;;;;;;29.55;45.77;98709.03;4472812;32;20305;-82
2022/08/25 07:33:07;;;;;;;12.90;4.37;;;;;;;29.66;45.29;98707.56;4486610;32;20486;-83
2022/08/25 07:35:32;;;;;;;15.55;4.68;;;;;;;29.32;45.33;98719.44;4474924;32;20468;-82
2022/08/25 07:37:59;;;;;;;12.37;3.90;;;;;;;29.20;45.74;98709.19;4487207;31;20098;-82
2022/08/25 07:40:36;;;;;;;13.07;4.32;;;;;;;29.35;46.00;98711.72;4484141;32;20127;-82
2022/08/25 07:43:06;;;;;;;12.75;4.40;;;;;;;29.24;46.95;98711.50;4487346;31;20103;-82
2022/08/25 07:45:34;;;;;;;12.40;4.20;;;;;;;29.49;46.27;98709.03;4490315;31;20088;-82
2022/08/25 07:48:02;;;;;;;13.02;3.90;;;;;;;29.70;45.37;98707.97;4488714;31;20152;-83
2022/08/25 07:50:30;;;;;;;12.45;3.75;;;;;;;29.64;45.25;98708.81;4503134;31;20100;-82
2022/08/25 07:52:55;;;;;;;;;;;;;;;29.26;45.27;98709.41;4503549;31;20164;-82
2022/08/25 07:55:23;;;;;;;12.48;4.10;;;;;;;29.31;44.59;98712.34;4489084;31;20011;-82
2022/08/25 07:57:49;;;;;;;13.05;3.80;;;;;;;29.16;44.67;98707.94;4489128;31;20519;-81
2022/08/25 08:00:15;;;;;;;10.35;3.55;;;;;;;29.20;44.25;98700.22;4503279;31;20168;-82
2022/08/25 08:02:41;;;;;;;45.40;6.18;;;;;;;29.54;44.24;98707.34;4503404;31;20083;-83
2022/08/25 08:05:08;;;;;;;13.77;4.32;;;;;;;29.76;43.43;98704.47;4499383;31;20174;-81
2022/08/25 08:07:33;;;;;;;14.63;3.75;;;;;;;29.81;43.65;98703.84;4486585;32;20455;-81
2022/08/25 08:10:00;;;;;;;13.68;3.95;;;;;;;30.00;43.72;98697.56;4487256;31;20124;-83
2022/08/25 08:12:26;;;;;;;12.52;4.00;;;;;;;29.92;44.04;98697.75;4487529;31;20097;-83
2022/08/25 08:14:52;;;;;;;14.40;4.28;;;;;;;30.06;43.78;98704.03;4484162;32;20485;-82
2022/08/25 08:17:18;;;;;;;12.45;3.70;;;;;;;30.01;43.35;98707.34;4473250;32;20140;-82
2022/08/25 08:19:43;;;;;;;12.02;3.85;;;;;;;30.16;42.84;98713.37;4459901;32;20431;-81
2022/08/25 08:22:14;;;;;;;12.55;3.78;;;;;;;29.77;43.52;98708.84;4487132;31;20140;-83
2022/08/25 08:24:43;;;;;;;10.40;3.80;;;;;;;29.19;44.44;98714.84;4487028;31;20242;-83
2022/08/25 08:27:09;;;;;;;13.62;3.83;;;;;;;29.87;43.51;98705.72;4485849;31;20088;-81
2022/08/25 08:29:36;;;;;;;11.48;3.87;;;;;;;29.99;43.74;98710.28;4486627;32;20112;-84
2022/08/25 08:32:03;;;;;;;10.60;3.80;;;;;;;30.16;43.49;98713.37;4486433;32;20105;-81
2022/08/25 08:34:29;;;;;;;14.73;3.85;;;;;;;30.03;42.65;98707.16;4486607;32;20165;-84
2022/08/25 08:36:55;;;;;;;12.68;3.70;;;;;;;30.38;42.03;98705.84;4487582;31;20084;-83
2022/08/25 08:39:21;;;;;;;14.23;3.62;;;;;;;30.29;42.83;98701.66;4486376;31;20333;-85
2022/08/25 08:42:17;;;;;;;10.25;3.67;;;;;;;30.35;42.70;98706.28;4486217;31;20096;-87
2022/08/25 08:44:45;;;;;;;13.50;4.18;;;;;;;30.42;42.09;98703.50;4486719;31;20097;-86
2022/08/25 08:47:20;;;;;;;10.48;4.03;;;;;;;30.34;42.10;98706.47;4486771;31;20439;-85
2022/08/25 08:50:15;;;;;;;11.70;3.47;;;;;;;30.13;42.87;98704.81;4486540;31;20096;-86
2022/08/25 08:52:50;;;;;;;10.93;4.12;;;;;;;30.34;41.98;98706.47;4437786;32;20093;-88
2022/08/25 08:55:23;;;;;;;12.90;3.70;;;;;;;30.30;41.94;98703.31;4437703;32;20131;-88
2022/08/25 08:57:51;;;;;;;11.52;3.22;;;;;;;29.99;43.08;98702.12;4438006;32;20093;-85
2022/08/25 09:00:16;;;;;;;12.88;4.28;;;;;;;30.09;42.57;98698.97;4424835;32;21082;-89
2022/08/25 09:03:09;;;;;;;11.05;3.40;;;;;;;30.19;41.95;98695.81;4424657;32;20131;-87
2022/08/25 09:05:48;;;;;;;13.23;4.28;;;;;;;30.35;42.04;98695.41;4437055;32;20163;-91
2022/08/25 09:08:15;;;;;;;9.63;3.25;;;;;;;30.49;41.14;98695.34;4424620;32;20500;-88
2022/08/25 09:11:01;;;;;;;;;;;;;;;30.51;41.26;98688.66;4437750;32;20108;-90
2022/08/25 09:13:45;;;;;;;11.98;4.20;;;;;;;30.64;41.63;98689.66;4425518;32;20030;-95
2022/08/25 09:19:23;;;;;;;10.38;3.72;;;;;;;30.66;41.48;98682.94;4426573;32;20499;-91
2022/08/25 09:22:10;;;;;;;10.40;3.37;;;;;;;30.77;40.81;98684.13;4437156;32;20105;-90
2022/08/25 09:24:49;;;;;;;10.50;3.42;;;;;;;30.78;40.07;98675.75;4437685;32;20130;-93
2022/08/25 09:27:37;;;;;;;10.40;3.47;;;;;;;30.47;40.55;98675.72;4424562;32;20101;-92
2022/08/25 09:30:18;;;;;;;12.55;3.58;;;;;;;30.59;39.35;98671.25;4490667;31;20087;-93
2022/08/25 09:32:49;;;;;;;12.00;3.62;;;;;;;30.53;39.69;98666.69;4485015;31;20120;-91
2022/08/25 09:35:30;;;;;;;11.25;3.20;;;;;;;30.47;40.08;98670.28;4487035;31;20115;-91
2022/08/25 09:38:00;;;;;;;10.35;3.20;;;;;;;30.33;39.97;98656.72;4486498;31;20425;-92
2022/08/25 09:40:28;;;;;;;9.10;3.20;;;;;;;30.50;39.33;98659.81;4486458;31;20130;-93
2022/08/25 09:42:56;;;;;;;12.55;3.37;;;;;;;30.33;39.26;98661.34;4481227;32;20561;-91
2022/08/25 09:45:42;;;;;;;11.77;3.15;;;;;;;30.44;38.59;98651.66;4486306;31;20104;-90
2022/08/25 09:48:21;;;;;;;11.60;3.53;;;;;;;30.51;37.45;98650.59;4485686;32;20168;-89
2022/08/25 09:50:49;;;;;;;10.15;3.03;;;;;;;30.42;38.47;98649.16;4487051;31;20092;-87
2022/08/25 09:53:16;;;;;;;13.00;4.28;;;;;;;30.23;38.76;98648.19;4485884;31;20130;-86
2022/08/25 09:55:43;;;;;;;11.02;3.28;;;;;;;29.67;39.32;98651.37;4486140;31;20387;-87
2022/08/25 09:58:16;;;;;;;9.82;3.92;;;;;;;29.81;40.19;98642.22;4484293;32;20088;-89
2022/08/25 10:00:42;;;;;;;9.15;3.10;;;;;;;30.04;40.04;98638.19;4486614;32;20082;-88
2022/08/25 10:03:14;;;;;;;7.40;2.90;;;;;;;30.32;39.37;98636.03;4486233;32;20119;-88
2022/08/25 10:05:59;;;;;;;9.95;2.90;;;;;;;29.60;38.99;98638.66;4476731;32;20551;-88
2022/08/25 10:08:35;;;;;;;12.10;3.65;;;;;;;29.21;39.87;98631.38;4472254;32;20081;-89
2022/08/25 10:11:04;;;;;;;9.48;3.10;;;;;;;29.38;39.14;98621.78;4486049;31;20106;-86
2022/08/25 10:13:41;;;;;;;12.48;3.60;;;;;;;29.60;39.44;98625.06;4486033;31;20115;-87
2022/08/25 10:16:22;;;;;;;12.10;3.43;;;;;;;29.62;39.55;98635.72;4472415;32;20100;-88
2022/08/25 10:19:05;;;;;;;9.30;2.97;;;;;;;29.94;38.68;98625.91;4486089;32;20163;-85
2022/08/25 10:21:31;;;;;;;12.60;3.45;;;;;;;30.26;38.38;98622.44;4486211;31;20095;-86
2022/08/25 10:23:59;;;;;;;12.32;3.37;;;;;;;30.08;39.17;98618.53;4485618;31;20456;-87
2022/08/25 10:26:48;;;;;;;11.80;3.20;;;;;;;30.09;39.08;98622.91;4484684;32;20104;-85
2022/08/25 10:29:50;;;;;;;9.23;3.10;;;;;;;29.95;39.49;98618.56;4485814;31;20118;-85
2022/08/25 10:32:29;;;;;;;9.20;2.87;;;;;;;30.38;38.59;98610.72;4486507;31;20099;-83
2022/08/25 10:34:58;;;;;;;12.43;3.30;;;;;;;30.54;38.05;98609.38;4486555;31;20157;-85
2022/08/25 10:37:45;;;;;;;9.43;3.20;;;;;;;30.52;37.19;98602.47;4485716;31;20181;-85
2022/08/25 10:40:14;;;;;;;10.25;3.15;;;;;;;30.64;37.30;98608.09;4477316;32;20092;-84
2022/08/25 10:43:06;;;;;;;11.48;3.42;;;;;;;30.71;37.52;98601.56;4485703;31;20088;-82
2022/08/25 10:45:43;;;;;;;8.88;3.10;;;;;;;30.81;37.05;98600.22;4485521;31;20084;-82
2022/08/25 10:48:12;;;;;;;9.52;3.08;;;;;;;30.95;36.30;98597.22;4485944;31;20096;-81
2022/08/25 10:50:52;;;;;;;11.02;3.62;;;;;;;30.78;36.76;98593.34;4486047;31;20084;-82
2022/08/25 10:53:26;;;;;;;8.80;2.92;;;;;;;30.47;36.35;98594.16;4473926;32;20454;-83
2022/08/25 10:55:57;;;;;;;10.85;3.60;;;;;;;30.68;36.84;98590.28;4485499;32;20131;-82
2022/08/25 10:58:51;;;;;;;10.05;3.00;;;;;;;30.25;37.11;98596.31;4485554;31;20423;-84
2022/08/25 11:01:53;;;;;;;10.25;3.20;;;;;;;30.82;36.63;98588.31;4485405;32;20608;-84
2022/08/25 11:04:25;;;;;;;9.20;3.03;;;;;;;30.85;36.07;98585.13;4486342;31;20084;-84
2022/08/25 11:06:58;;;;;;;11.88;3.50;;;;;;;30.93;36.73;98584.91;4487215;32;20104;-86
2022/08/25 11:09:31;;;;;;;10.93;3.30;;;;;;;30.94;36.29;98581.13;4474128;32;20602;-83
2022/08/25 11:12:02;;;;;;;10.70;3.22;;;;;;;31.05;36.26;98572.25;4488856;31;20538;-82
2022/08/25 11:14:27;;;;;;;14.18;3.22;;;;;;;30.98;35.95;98571.47;4479485;31;20104;-82
2022/08/25 11:17:05;;;;;;;11.12;3.65;;;;;;;30.84;36.19;98573.41;4495763;31;20108;-83
2022/08/25 11:19:44;;;;;;;13.52;3.70;;;;;;;30.98;36.23;98568.75;4496184;31;20096;-84
2022/08/25 11:22:23;;;;;;;12.63;3.55;;;;;;;31.03;35.84;98560.75;4488696;31;20485;-83
2022/08/25 11:25:10;;;;;;;12.48;3.72;;;;;;;31.12;35.58;98561.34;4477708;31;20123;-85
2022/08/25 11:27:51;;;;;;;12.75;3.80;;;;;;;30.58;36.59;98560.84;4494865;31;20458;-84
2022/08/25 11:30:18;;;;;;;11.10;3.70;;;;;;;30.32;37.25;98567.25;4469265;32;20153;-86
2022/08/25 11:32:49;;;;;;;13.85;3.85;;;;;;;30.32;37.94;98559.94;4499481;31;20119;-86
2022/08/25 11:35:18;;;;;;;12.43;3.83;;;;;;;30.71;37.50;98557.19;4492605;31;20080;-85
2022/08/25 11:37:54;;;;;;;10.40;3.78;;;;;;;30.96;37.26;98543.66;4493524;31;20472;-82
2022/08/25 11:40:40;;;;;;;11.82;3.40;;;;;;;30.96;36.78;98543.66;4493628;31;20091;-83
2022/08/25 11:43:26;;;;;;;9.40;3.25;;;;;;;31.11;35.92;98546.03;4493956;31;20128;-83
2022/08/25 11:46:07;;;;;;;9.90;3.30;;;;;;;31.05;36.08;98531.44;4480788;32;20524;-82